Singleton, New South Wales

2:02 PM AEDT on November 27, 2014 (GMT +1100)
Glennies Creek | Change Station
CLOSE
Current Station
Personal Weather Station
Location: Bridgman, NEW SOUTH WALES
Elevation: 289 ft
Nearby Weather Stations

Elev 289 ft 32.44 °S, 151.16 °E | Updated 2 minutes ago

Mostly Cloudy
Mostly Cloudy
77.4 °F
Feels Like 79 °F
N
18.6
Wind Variable Wind from ESE

Today
High -- | Low -- °F
--% Chance of Precip.
Yesterday
High -- | Low -- °F
Precip. -- in
5:41 AM 7:44 PM
Waxing Crescent, 25% visible
Pressure 30.15 in
Visibility 6.2 miles
Clouds Few 1100 ft
Mostly Cloudy 2000 ft
Mostly Cloudy 4500 ft
Heat Index 79 °F
Dew Point 62 °F
Humidity 60%
Rainfall 0.04 in
Snow Depth Not available.
UV 6 out of 12
Pollen Not available.
Air Quality Not available.
Flu Activity Not available.
METAR YWLM 270230Z 13016KT 9999 FEW011 BKN020 BKN045 22/16 Q1021

More Conditions Fewer Conditions

Pressure 30.15 in
Visibility 6.2 miles
Clouds Few 1100 ft
Mostly Cloudy 2000 ft
Mostly Cloudy 4500 ft
Heat Index 79 °F
Dew Point 62 °F
Humidity 60%
Rainfall 0.04 in
Snow Depth Not available.
UV 6 out of 12
Pollen Not available.
Air Quality Not available.
Flu Activity Not available.
METAR YWLM 270230Z 13016KT 9999 FEW011 BKN020 BKN045 22/16 Q1021

More Conditions Fewer Conditions

10-Day Weather Forecast

Almanac

Astronomy

Nov. 27, 2014 Rise Set
Actual Time
Civil Twilight
Nautical Twilight
Astronomical Twilight
Moon
Length of Visible Light
Length of Day
Tomorrow will be .
, % of the Moon is Illuminated

Today's Extremes

Country Highs Country Lows

Community

WunderPhotos

Upload Photos

1,773,949 photos uploaded!

WunderBlogs® & News

Nearby

Air Quality

  Air Quality AQ Index Pollutant
Not available.

Snow Depth

Station Depth Elevation

Earthquake Activity

City Distance Mag. Time & Date
Minimum magnitude displayed is 2.5.

Coastal Water Temperatures

Place Temperature

Nearby Weather Stations